createdAt,value
2023-11-06T00:02:19.225Z,14.64
2023-11-06T00:04:50.122Z,14.61
2023-11-06T00:07:21.118Z,14.58
2023-11-06T00:09:52.659Z,14.53
2023-11-06T00:12:22.560Z,14.50
2023-11-06T00:14:54.873Z,14.45
2023-11-06T00:17:25.934Z,14.38
2023-11-06T00:19:58.597Z,14.31
2023-11-06T00:22:30.239Z,14.28
2023-11-06T00:25:02.840Z,14.25
2023-11-06T00:27:32.946Z,14.25
2023-11-06T00:30:04.286Z,14.27
2023-11-06T00:32:35.557Z,14.31
2023-11-06T00:35:07.230Z,14.36
2023-11-06T00:37:41.243Z,14.32
2023-11-06T00:40:12.388Z,14.21
2023-11-06T00:42:43.265Z,14.11
2023-11-06T00:45:13.241Z,14.12
2023-11-06T00:47:43.140Z,14.14
2023-11-06T00:50:14.792Z,14.20
2023-11-06T00:52:45.868Z,14.24
2023-11-06T00:55:17.707Z,14.27
2023-11-06T00:57:52.009Z,14.27
2023-11-06T01:00:26.315Z,14.25
2023-11-06T01:02:58.195Z,14.28
2023-11-06T01:05:28.445Z,14.31
2023-11-06T01:07:59.487Z,14.33
2023-11-06T01:10:31.358Z,14.32
2023-11-06T01:13:03.379Z,14.29
2023-11-06T01:15:37.284Z,14.24
2023-11-06T01:18:09.435Z,14.19
2023-11-06T01:20:43.172Z,14.14
2023-11-06T01:23:14.132Z,14.05
2023-11-06T01:25:46.438Z,13.99
2023-11-06T01:28:18.036Z,13.97
2023-11-06T01:30:50.030Z,13.93
2023-11-06T01:33:21.721Z,13.91
2023-11-06T01:35:52.640Z,13.86
2023-11-06T01:38:25.579Z,13.77
2023-11-06T01:40:58.051Z,13.75
2023-11-06T01:43:29.986Z,13.70
2023-11-06T01:46:02.224Z,13.68
2023-11-06T01:48:34.109Z,13.66
2023-11-06T01:51:06.602Z,13.70
2023-11-06T01:53:37.645Z,13.78
2023-11-06T01:56:09.146Z,13.78
2023-11-06T01:58:40.832Z,13.71
2023-11-06T02:01:13.369Z,13.63
2023-11-06T02:03:45.256Z,13.59
2023-11-06T02:06:18.017Z,13.57
2023-11-06T02:08:48.685Z,13.58
2023-11-06T02:11:20.515Z,13.57
2023-11-06T02:13:52.696Z,13.55
2023-11-06T02:16:24.901Z,13.55
2023-11-06T02:18:55.488Z,13.46
2023-11-06T02:21:26.913Z,13.39
2023-11-06T02:23:59.596Z,13.27
2023-11-06T02:26:32.114Z,13.17
2023-11-06T02:29:03.201Z,13.18
2023-11-06T02:31:34.062Z,13.22
2023-11-06T02:34:05.550Z,13.22
2023-11-06T02:36:36.474Z,13.17
2023-11-06T02:39:08.302Z,13.04
2023-11-06T02:41:39.842Z,12.96
2023-11-06T02:44:11.032Z,12.94
2023-11-06T02:46:42.444Z,12.99
2023-11-06T02:49:14.607Z,13.07
2023-11-06T02:51:46.071Z,13.15
2023-11-06T02:54:16.236Z,13.18
2023-11-06T02:56:50.325Z,13.17
2023-11-06T02:59:26.388Z,13.15
2023-11-06T03:01:57.030Z,13.11
2023-11-06T03:04:28.362Z,13.09
2023-11-06T03:06:59.185Z,13.07
2023-11-06T03:09:31.179Z,13.03
2023-11-06T03:12:01.555Z,13.00
2023-11-06T03:14:33.236Z,12.97
2023-11-06T03:17:05.470Z,12.92
2023-11-06T03:19:38.000Z,12.86
2023-11-06T03:22:08.983Z,12.82
2023-11-06T03:24:38.824Z,12.82
2023-11-06T03:27:10.668Z,12.85
2023-11-06T03:29:42.214Z,12.87
2023-11-06T03:32:13.948Z,12.85
2023-11-06T03:34:49.387Z,12.86
2023-11-06T03:37:21.519Z,12.84
2023-11-06T03:39:52.959Z,12.84
2023-11-06T03:42:25.123Z,12.83
2023-11-06T03:44:56.910Z,12.82
2023-11-06T03:47:28.670Z,12.78
2023-11-06T03:49:59.870Z,12.76
2023-11-06T03:52:34.109Z,12.71
2023-11-06T03:55:06.311Z,12.69
2023-11-06T03:57:38.058Z,12.67
2023-11-06T04:00:13.288Z,12.69
2023-11-06T04:02:46.922Z,12.71
2023-11-06T04:05:18.445Z,12.72
2023-11-06T04:07:52.406Z,12.72
2023-11-06T04:10:23.722Z,12.70
2023-11-06T04:12:55.404Z,12.70
2023-11-06T04:15:28.267Z,12.68
2023-11-06T04:18:00.420Z,12.68
2023-11-06T04:20:31.854Z,12.64
2023-11-06T04:23:04.191Z,12.60
2023-11-06T04:25:36.679Z,12.57
2023-11-06T04:28:09.370Z,12.51
2023-11-06T04:30:42.658Z,12.43
2023-11-06T04:33:15.038Z,12.38
2023-11-06T04:35:47.143Z,12.34
2023-11-06T04:38:20.366Z,12.29
2023-11-06T04:40:53.819Z,12.25
2023-11-06T04:43:26.046Z,12.24
2023-11-06T04:45:58.494Z,12.23
2023-11-06T04:48:31.070Z,12.24
2023-11-06T04:51:04.875Z,12.26
2023-11-06T04:53:37.116Z,12.24
2023-11-06T04:56:10.093Z,12.26
2023-11-06T04:58:44.175Z,12.24
2023-11-06T05:01:22.470Z,12.19
2023-11-06T05:03:54.295Z,12.18
2023-11-06T05:06:26.288Z,12.14
2023-11-06T05:08:58.212Z,12.00
2023-11-06T05:11:29.729Z,11.87
2023-11-06T05:14:01.264Z,11.83
2023-11-06T05:16:32.467Z,11.83
2023-11-06T05:19:04.845Z,11.86
2023-11-06T05:21:38.600Z,11.83
2023-11-06T05:24:09.655Z,11.69
2023-11-06T05:26:40.366Z,11.61
2023-11-06T05:29:12.872Z,11.49
2023-11-06T05:31:44.307Z,11.45
2023-11-06T05:34:16.655Z,11.48
2023-11-06T05:36:48.942Z,11.49
2023-11-06T05:39:20.527Z,11.54
2023-11-06T05:41:53.080Z,11.61
2023-11-06T05:44:28.769Z,11.64
2023-11-06T05:46:59.605Z,11.66
2023-11-06T05:49:31.701Z,11.65
2023-11-06T05:52:02.306Z,11.55
2023-11-06T05:54:33.899Z,11.46
2023-11-06T05:57:06.294Z,11.40
2023-11-06T05:59:36.901Z,11.38
2023-11-06T06:02:09.711Z,11.43
2023-11-06T06:04:43.675Z,11.51
2023-11-06T06:07:15.221Z,11.57
2023-11-06T06:09:47.510Z,11.64
2023-11-06T06:12:21.451Z,11.60
2023-11-06T06:14:53.094Z,11.60
2023-11-06T06:17:23.645Z,11.61
2023-11-06T06:19:55.015Z,11.67
2023-11-06T06:22:25.135Z,11.80
2023-11-06T06:24:55.326Z,11.91
2023-11-06T06:27:26.430Z,12.04
2023-11-06T06:29:59.625Z,12.15
2023-11-06T06:32:35.261Z,12.28
2023-11-06T06:35:07.726Z,12.41
2023-11-06T06:37:41.121Z,12.51
2023-11-06T06:40:13.351Z,12.60
2023-11-06T06:42:44.825Z,12.77
2023-11-06T06:45:18.122Z,12.92
2023-11-06T06:47:50.597Z,13.01
2023-11-06T06:50:23.283Z,13.08
2023-11-06T06:52:54.351Z,13.18
2023-11-06T06:55:28.388Z,13.28
2023-11-06T06:58:01.890Z,13.34
2023-11-06T07:00:39.039Z,13.41
2023-11-06T07:03:14.837Z,13.53
2023-11-06T07:05:49.982Z,13.61
2023-11-06T07:08:22.505Z,13.69
2023-11-06T07:10:54.720Z,13.82
2023-11-06T07:13:26.819Z,14.01
2023-11-06T07:15:59.879Z,14.25
2023-11-06T07:18:30.736Z,14.48
2023-11-06T07:21:01.370Z,14.66
2023-11-06T07:23:32.340Z,14.82
2023-11-06T07:26:03.955Z,15.01
2023-11-06T07:28:35.614Z,15.31
2023-11-06T07:31:08.253Z,15.39
2023-11-06T07:33:41.453Z,15.35
2023-11-06T07:36:12.832Z,15.28
2023-11-06T07:38:43.108Z,15.20
2023-11-06T07:41:17.094Z,15.17
2023-11-06T07:43:49.835Z,15.20
2023-11-06T07:46:23.370Z,15.27
2023-11-06T07:48:56.428Z,15.36
2023-11-06T07:51:27.781Z,15.44
2023-11-06T07:54:00.718Z,15.51
2023-11-06T07:56:32.444Z,15.69
2023-11-06T07:59:06.076Z,15.77
2023-11-06T08:01:40.189Z,15.88
2023-11-06T08:04:14.954Z,16.04
2023-11-06T08:06:46.179Z,16.24
2023-11-06T08:09:19.484Z,16.50
2023-11-06T08:11:51.613Z,16.69
2023-11-06T08:14:23.292Z,16.80
2023-11-06T08:16:54.253Z,16.83
2023-11-06T08:19:26.194Z,16.91
2023-11-06T08:21:59.633Z,16.99
2023-11-06T08:24:31.956Z,17.16
2023-11-06T08:27:04.329Z,17.30
2023-11-06T08:29:36.136Z,17.23
2023-11-06T08:32:07.462Z,17.21
2023-11-06T08:34:42.437Z,17.22
2023-11-06T08:37:15.122Z,17.32
2023-11-06T08:39:47.552Z,17.55
2023-11-06T08:42:19.429Z,17.75
2023-11-06T08:44:51.933Z,17.97
2023-11-06T08:47:26.128Z,18.25
2023-11-06T08:50:00.036Z,18.63
2023-11-06T08:52:31.361Z,19.16
2023-11-06T08:55:01.608Z,19.88
2023-11-06T08:57:34.343Z,22.43
2023-11-06T09:00:08.502Z,25.56
2023-11-06T09:02:40.734Z,28.14
2023-11-06T09:05:14.301Z,30.17
2023-11-06T09:07:46.541Z,31.69
2023-11-06T09:10:22.309Z,32.93
2023-11-06T09:12:55.448Z,32.64
2023-11-06T09:15:26.576Z,31.77
2023-11-06T09:17:59.278Z,32.12
2023-11-06T09:20:31.072Z,31.09
2023-11-06T09:23:02.750Z,32.05
2023-11-06T09:25:35.834Z,33.40
2023-11-06T09:28:07.683Z,32.36
2023-11-06T09:30:38.367Z,30.46
2023-11-06T09:33:10.437Z,29.10
2023-11-06T09:35:42.661Z,28.57
2023-11-06T09:38:14.855Z,27.03
2023-11-06T09:40:50.586Z,27.86
2023-11-06T09:43:23.086Z,30.03
2023-11-06T09:45:56.180Z,31.17
2023-11-06T09:48:33.659Z,31.58
2023-11-06T09:51:16.579Z,30.54
2023-11-06T09:53:54.249Z,29.43
2023-11-06T09:56:27.394Z,28.94
2023-11-06T09:59:00.039Z,28.03
2023-11-06T10:01:31.458Z,27.29
2023-11-06T10:04:06.366Z,26.84
2023-11-06T10:06:40.386Z,26.47
2023-11-06T10:09:30.957Z,27.34
2023-11-06T10:12:20.760Z,28.51
2023-11-06T10:14:50.997Z,30.10
2023-11-06T10:17:25.765Z,31.24
2023-11-06T10:20:24.288Z,32.07
2023-11-06T10:22:57.630Z,32.38
2023-11-06T10:25:32.722Z,32.74
2023-11-06T10:28:03.715Z,32.71
2023-11-06T10:30:47.874Z,32.39
2023-11-06T10:33:20.023Z,32.38
2023-11-06T10:35:51.581Z,32.50
2023-11-06T10:38:31.373Z,31.73
2023-11-06T10:41:30.655Z,32.07
2023-11-06T10:44:02.767Z,32.16
2023-11-06T10:46:39.403Z,33.13
2023-11-06T10:49:16.963Z,33.84
2023-11-06T10:51:52.850Z,34.67
2023-11-06T10:54:26.667Z,35.58
2023-11-06T10:56:59.398Z,36.69
2023-11-06T10:59:35.522Z,36.78
2023-11-06T11:02:07.685Z,34.86
2023-11-06T11:04:43.409Z,34.41
2023-11-06T11:07:18.098Z,34.03
2023-11-06T11:09:53.461Z,32.05
2023-11-06T11:12:26.464Z,30.35
2023-11-06T11:14:59.927Z,29.04
2023-11-06T11:17:31.043Z,28.42
2023-11-06T11:20:08.109Z,28.66
2023-11-06T11:23:09.709Z,29.93
2023-11-06T11:26:18.807Z,31.05
2023-11-06T11:29:12.160Z,30.28
2023-11-06T11:31:50.099Z,28.93
2023-11-06T11:34:35.642Z,28.43
2023-11-06T11:37:38.306Z,27.91
2023-11-06T11:40:15.336Z,27.28
2023-11-06T11:42:48.321Z,26.37
2023-11-06T11:45:34.031Z,25.65
2023-11-06T11:48:06.546Z,24.95
2023-11-06T11:50:40.778Z,24.49
2023-11-06T11:53:38.967Z,24.44
2023-11-06T11:56:54.574Z,25.37
2023-11-06T11:59:27.428Z,25.70
2023-11-06T12:02:01.530Z,25.89
2023-11-06T12:04:35.364Z,25.94
2023-11-06T12:07:07.536Z,25.92
2023-11-06T12:09:50.749Z,27.33
2023-11-06T12:12:25.733Z,27.63
2023-11-06T12:14:59.374Z,26.76
2023-11-06T12:17:33.804Z,26.32
2023-11-06T12:20:12.366Z,26.48
2023-11-06T12:22:53.061Z,26.89
2023-11-06T12:25:36.327Z,27.60
2023-11-06T12:28:16.669Z,28.41
2023-11-06T12:30:56.069Z,29.35
2023-11-06T12:33:27.265Z,29.68
2023-11-06T12:35:59.285Z,29.68
2023-11-06T12:38:41.551Z,30.01
2023-11-06T12:41:13.873Z,30.81
2023-11-06T12:43:46.409Z,30.29
2023-11-06T12:46:19.006Z,29.00
2023-11-06T12:48:53.461Z,27.86
2023-11-06T12:51:26.084Z,27.09
2023-11-06T12:53:57.698Z,26.39
2023-11-06T12:56:30.016Z,25.63
2023-11-06T12:59:02.338Z,25.11
2023-11-06T13:01:36.861Z,24.97
2023-11-06T13:04:09.476Z,25.02
2023-11-06T13:06:43.776Z,24.74
2023-11-06T13:09:17.867Z,24.35
2023-11-06T13:11:58.586Z,23.80
2023-11-06T13:14:32.765Z,23.45
2023-11-06T13:17:10.781Z,23.13
2023-11-06T13:19:51.014Z,22.77
2023-11-06T13:22:29.268Z,22.42
2023-11-06T13:25:04.528Z,22.23
2023-11-06T13:27:40.978Z,22.23
2023-11-06T13:30:16.925Z,22.19
2023-11-06T13:32:55.853Z,22.07
2023-11-06T13:35:34.842Z,21.97
2023-11-06T13:38:12.943Z,21.94
2023-11-06T13:40:48.585Z,22.07
2023-11-06T13:43:24.375Z,22.59
2023-11-06T13:45:56.515Z,22.98
2023-11-06T13:48:30.079Z,22.97
2023-11-06T13:51:22.796Z,22.56
2023-11-06T13:54:02.807Z,22.28
2023-11-06T13:56:40.739Z,22.14
2023-11-06T13:59:14.527Z,22.03
2023-11-06T14:01:51.334Z,21.97
2023-11-06T14:04:25.903Z,21.81
2023-11-06T14:07:03.597Z,21.53
2023-11-06T14:09:45.462Z,21.33
2023-11-06T14:12:18.435Z,21.18
2023-11-06T14:14:53.522Z,21.09
2023-11-06T14:17:29.518Z,20.97
2023-11-06T14:20:05.011Z,20.81
2023-11-06T14:22:41.526Z,20.74
2023-11-06T14:25:16.540Z,20.59
2023-11-06T14:28:00.074Z,20.46
2023-11-06T14:30:34.565Z,20.58
2023-11-06T14:33:12.924Z,20.73
2023-11-06T14:35:50.966Z,20.77
2023-11-06T14:38:24.184Z,20.88
2023-11-06T14:40:59.813Z,20.89
2023-11-06T14:43:32.664Z,20.75
2023-11-06T14:46:06.449Z,20.62
2023-11-06T14:48:46.145Z,20.52
2023-11-06T14:51:21.145Z,20.32
2023-11-06T14:53:53.724Z,20.24
2023-11-06T14:56:25.288Z,20.15
2023-11-06T14:58:57.945Z,20.00
2023-11-06T15:01:30.504Z,19.87
2023-11-06T15:04:03.527Z,19.75
2023-11-06T15:06:38.011Z,19.62
2023-11-06T15:09:11.091Z,19.55
2023-11-06T15:11:42.631Z,19.45
2023-11-06T15:14:15.011Z,19.34
2023-11-06T15:16:49.314Z,19.24
2023-11-06T15:19:21.301Z,19.20
2023-11-06T15:21:55.830Z,19.16
2023-11-06T15:24:27.382Z,19.06
2023-11-06T15:27:00.182Z,18.97
2023-11-06T15:29:32.419Z,18.88
2023-11-06T15:32:06.653Z,18.78
2023-11-06T15:34:39.272Z,18.68
2023-11-06T15:37:12.152Z,18.61
2023-11-06T15:39:45.166Z,18.56
2023-11-06T15:42:18.083Z,18.50
2023-11-06T15:44:52.794Z,18.43
2023-11-06T15:47:24.090Z,18.38
2023-11-06T15:50:00.202Z,18.33
2023-11-06T15:52:33.761Z,18.30
2023-11-06T15:55:06.754Z,18.23
2023-11-06T15:57:39.715Z,18.17
2023-11-06T16:00:12.461Z,18.14
2023-11-06T16:02:46.422Z,18.11
2023-11-06T16:05:20.151Z,18.06
2023-11-06T16:07:51.731Z,18.01
2023-11-06T16:10:24.074Z,17.98
2023-11-06T16:12:59.169Z,17.93
2023-11-06T16:15:31.945Z,17.89
2023-11-06T16:18:03.402Z,17.84
2023-11-06T16:20:35.593Z,17.82
2023-11-06T16:23:08.505Z,17.76
2023-11-06T16:25:41.952Z,17.71
2023-11-06T16:28:15.088Z,17.65
2023-11-06T16:30:49.363Z,17.63
2023-11-06T16:33:25.597Z,17.59
2023-11-06T16:36:00.430Z,17.53
2023-11-06T16:38:32.334Z,17.49
2023-11-06T16:41:04.217Z,17.46
2023-11-06T16:43:36.615Z,17.42
2023-11-06T16:46:10.527Z,17.38
2023-11-06T16:48:47.053Z,17.31
2023-11-06T16:51:21.984Z,17.28
2023-11-06T16:53:55.183Z,17.27
2023-11-06T16:56:33.206Z,17.25
2023-11-06T16:59:06.932Z,17.21
2023-11-06T17:01:40.661Z,17.21
2023-11-06T17:04:15.631Z,17.21
2023-11-06T17:06:49.699Z,17.21
2023-11-06T17:09:21.902Z,17.20
2023-11-06T17:11:58.856Z,17.19
2023-11-06T17:14:36.567Z,17.18
2023-11-06T17:17:15.229Z,17.16
2023-11-06T17:19:49.040Z,17.14
2023-11-06T17:22:28.419Z,17.11
2023-11-06T17:25:04.362Z,17.05
2023-11-06T17:27:39.786Z,16.99
2023-11-06T17:30:15.613Z,16.92
2023-11-06T17:32:49.076Z,16.88
2023-11-06T17:35:23.818Z,16.85
2023-11-06T17:37:56.859Z,16.83
2023-11-06T17:40:34.188Z,16.82
2023-11-06T17:43:13.257Z,16.75
2023-11-06T17:45:48.996Z,16.72
2023-11-06T17:48:24.979Z,16.73
2023-11-06T17:51:02.771Z,16.72
2023-11-06T17:53:36.888Z,16.69
2023-11-06T17:56:20.701Z,16.67
2023-11-06T17:58:57.627Z,16.64
2023-11-06T18:01:31.462Z,16.65
2023-11-06T18:04:07.877Z,16.62
2023-11-06T18:06:44.761Z,16.62
2023-11-06T18:09:21.563Z,16.61
2023-11-06T18:11:58.864Z,16.61
2023-11-06T18:14:33.630Z,16.57
2023-11-06T18:17:06.904Z,16.55
2023-11-06T18:19:41.761Z,16.52
2023-11-06T18:22:17.450Z,16.48
2023-11-06T18:24:52.205Z,16.46
2023-11-06T18:27:27.669Z,16.46
2023-11-06T18:30:00.341Z,16.44
2023-11-06T18:32:36.437Z,16.44
2023-11-06T18:35:09.391Z,16.45
2023-11-06T18:37:44.064Z,16.45
2023-11-06T18:40:20.991Z,16.44
2023-11-06T18:42:57.293Z,16.39
2023-11-06T18:45:32.022Z,16.29
2023-11-06T18:48:07.312Z,16.23
2023-11-06T18:50:41.456Z,16.21
2023-11-06T18:53:20.412Z,16.20
2023-11-06T18:55:54.195Z,16.17
2023-11-06T18:58:29.250Z,16.11
2023-11-06T19:01:05.728Z,16.04
2023-11-06T19:03:39.281Z,16.01
2023-11-06T19:06:20.263Z,15.99
2023-11-06T19:09:00.839Z,15.95
2023-11-06T19:11:36.812Z,15.97
2023-11-06T19:14:09.904Z,15.99
2023-11-06T19:16:44.862Z,16.01
2023-11-06T19:19:21.067Z,16.02
2023-11-06T19:21:57.703Z,16.03
2023-11-06T19:24:35.460Z,16.04
2023-11-06T19:27:12.176Z,16.04
2023-11-06T19:29:47.920Z,16.05
2023-11-06T19:32:21.988Z,16.07
2023-11-06T19:34:55.835Z,16.08
2023-11-06T19:37:31.794Z,16.11
2023-11-06T19:40:09.081Z,16.10
2023-11-06T19:42:41.692Z,16.10
2023-11-06T19:45:19.367Z,16.10
2023-11-06T19:47:55.777Z,16.11
2023-11-06T19:50:33.465Z,16.11
2023-11-06T19:53:08.933Z,16.12
2023-11-06T19:55:53.596Z,16.16
2023-11-06T19:58:33.346Z,16.16
2023-11-06T20:01:09.798Z,16.17
2023-11-06T20:03:46.670Z,16.20
2023-11-06T20:06:22.858Z,16.23
2023-11-06T20:09:04.072Z,16.26
2023-11-06T20:11:41.234Z,16.29
2023-11-06T20:14:15.463Z,16.32
2023-11-06T20:16:54.841Z,16.38
2023-11-06T20:19:32.563Z,16.34
2023-11-06T20:22:14.604Z,16.28
2023-11-06T20:24:52.750Z,16.22
2023-11-06T20:27:33.329Z,16.16
2023-11-06T20:30:12.949Z,16.11
2023-11-06T20:32:51.150Z,16.13
2023-11-06T20:35:27.883Z,16.13
2023-11-06T20:38:03.548Z,16.13
2023-11-06T20:40:37.769Z,16.17
2023-11-06T20:43:11.052Z,16.17
2023-11-06T20:45:47.203Z,16.19
2023-11-06T20:48:24.878Z,16.21
2023-11-06T20:51:05.167Z,16.22
2023-11-06T20:53:41.272Z,16.21
2023-11-06T20:56:13.899Z,16.21
2023-11-06T20:58:48.118Z,16.19
2023-11-06T21:01:23.859Z,16.19
2023-11-06T21:04:00.854Z,16.22
2023-11-06T21:06:34.494Z,16.23
2023-11-06T21:09:10.234Z,16.25
2023-11-06T21:11:44.272Z,16.27
2023-11-06T21:14:24.682Z,16.28
2023-11-06T21:16:57.699Z,16.28
2023-11-06T21:19:35.195Z,16.26
2023-11-06T21:22:10.009Z,16.21
2023-11-06T21:24:42.624Z,16.16
2023-11-06T21:27:18.878Z,16.15
2023-11-06T21:29:55.549Z,16.14
2023-11-06T21:32:31.393Z,16.16
2023-11-06T21:35:05.965Z,16.15
2023-11-06T21:37:39.300Z,16.09
2023-11-06T21:40:14.959Z,16.06
2023-11-06T21:42:50.787Z,16.03
2023-11-06T21:45:28.497Z,16.02
2023-11-06T21:48:07.710Z,16.00
2023-11-06T21:50:48.464Z,16.02
2023-11-06T21:53:23.237Z,16.01
2023-11-06T21:55:57.319Z,15.98
2023-11-06T21:58:34.910Z,16.01
2023-11-06T22:01:13.401Z,16.02
2023-11-06T22:03:48.817Z,16.01
2023-11-06T22:06:28.032Z,16.01
2023-11-06T22:09:02.715Z,15.99
2023-11-06T22:11:36.966Z,15.99
2023-11-06T22:14:12.224Z,16.02
2023-11-06T22:16:56.604Z,16.04
2023-11-06T22:19:32.834Z,16.01
2023-11-06T22:22:13.192Z,15.96
2023-11-06T22:24:44.629Z,15.85
2023-11-06T22:27:19.291Z,15.77
2023-11-06T22:29:51.046Z,15.60
2023-11-06T22:32:24.331Z,15.54
2023-11-06T22:34:58.647Z,15.48
2023-11-06T22:37:32.537Z,15.47
2023-11-06T22:40:05.959Z,15.46
2023-11-06T22:42:40.619Z,15.43
2023-11-06T22:45:16.744Z,15.40
2023-11-06T22:47:50.335Z,15.36
2023-11-06T22:50:20.530Z,15.36
2023-11-06T22:52:55.207Z,15.35
2023-11-06T22:55:26.623Z,15.35
2023-11-06T22:58:04.064Z,15.37
2023-11-06T23:00:40.806Z,15.36
2023-11-06T23:03:15.939Z,15.34
2023-11-06T23:05:50.447Z,15.32
2023-11-06T23:08:23.209Z,15.32
2023-11-06T23:10:53.593Z,15.35
2023-11-06T23:13:28.216Z,15.40
2023-11-06T23:16:03.680Z,15.41
2023-11-06T23:18:35.338Z,15.39
2023-11-06T23:21:08.355Z,15.40
2023-11-06T23:23:42.848Z,15.42
2023-11-06T23:26:16.230Z,15.42
2023-11-06T23:28:49.930Z,15.40
2023-11-06T23:31:23.554Z,15.37
2023-11-06T23:33:56.401Z,15.37
2023-11-06T23:36:27.788Z,15.36
2023-11-06T23:39:06.333Z,15.41
2023-11-06T23:41:43.409Z,15.48
2023-11-06T23:44:17.989Z,15.52
2023-11-06T23:46:50.965Z,15.56
2023-11-06T23:49:25.581Z,15.56
2023-11-06T23:51:59.114Z,15.54
2023-11-06T23:54:33.305Z,15.53
2023-11-06T23:57:05.269Z,15.47
2023-11-06T23:59:36.335Z,15.42
